Humidity-temperature Sensor

Selected Measurement Type: Air Temperature

 
Air Temperature [°C]     6 entries per hour
Showing data from 10/10/2015 (00:00:00 Z) to 10/9/2015 (00:01:00 Z)
Previous Next [ Day | 3-Days | 7-Days ]
First Last
Prev [ Day | 3-Days | 7-Days ] Next
First Last

Start Time:     :
End Time:     :     
Time (in GMT) :00 :50 :40 :30 :20 :10
Previous Next [ Day | 3-Days | 7-Days ]
First Last
Prev [ Day | 3-Days | 7-Days ] Next
First Last


123 => good data
MM => data is determined as missing
-- => data not received/configured
Back to Top Back to Top
10/10/2015 00:00 to 23:10 26.72 27.78 28.17 28.17 28.32 28.42
10/9/2015 23:00 to 22:10 28.32 28.51 28.18 28.35 28.58 28.24
10/9/2015 22:00 to 21:10 28.21 28.46 28.19 28.25 28.34 28.17
10/9/2015 21:00 to 20:10 28.31 28.27 28.35 28.44 28.31 28.31
10/9/2015 20:00 to 19:10 28.40 28.50 28.45 28.51 28.34 28.32
10/9/2015 19:00 to 18:10 28.48 28.36 28.24 28.21 28.45 28.31
10/9/2015 18:00 to 17:10 28.47 28.32 28.37 28.53 28.44 28.43
10/9/2015 17:00 to 16:10 28.43 28.42 28.41 28.45 28.36 28.32
10/9/2015 16:00 to 15:10 28.23 28.17 28.00 27.91 28.03 28.11
10/9/2015 15:00 to 14:10 28.05 28.13 28.04 27.98 27.86 27.97
10/9/2015 14:00 to 13:10 27.93 27.90 27.95 28.01 27.92 27.88
10/9/2015 13:00 to 12:10 27.83 28.11 27.95 28.01 27.99 28.00
10/9/2015 12:00 to 11:10 27.97 27.89 27.93 27.92 28.02 28.05
10/9/2015 11:00 to 10:10 27.96 27.98 27.87 28.05 28.03 27.99
10/9/2015 10:00 to 9:10 28.19 28.08 28.07 28.09 28.14 28.13
10/9/2015 09:00 to 8:10 27.92 28.14 28.19 28.16 28.19 28.25
10/9/2015 08:00 to 7:10 28.12 28.09 28.11 28.20 28.18 28.23
10/9/2015 07:00 to 6:10 28.12 28.28 28.25 28.21 28.16 28.21
10/9/2015 06:00 to 5:10 28.27 28.28 28.28 28.25 28.19 28.14
10/9/2015 05:00 to 4:10 28.20 28.31 28.25 28.26 28.25 28.35
10/9/2015 04:00 to 3:10 28.25 28.26 28.28 28.31 28.28 28.32
10/9/2015 03:00 to 2:10 28.29 28.22 28.41 28.68 28.68 28.50
10/9/2015 02:00 to 1:10 28.28 28.49 28.38 28.34 28.45 28.27
10/9/2015 01:00 to 0:10 28.51 28.54 28.30 28.27 28.19 28.24